Time;durP1;ratioP1;P1;durP2;ratioP2;P2;SDS_P1;SDS_P2;PMS_P1;PMS_P2;Temp;Humidity;BMP_temperature;BMP_pressure;BME280_temperature;BME280_humidity;BME280_pressure;Samples;Min_cycle;Max_cycle;Signal;HPM_P1;HPM_P2
2023/10/26 00:01:35;;;;;;;2.95;2.75;;;;;;;13.57;72.23;97529.13;4977768;28;20133;-76
2023/10/26 00:04:02;;;;;;;3.45;3.13;;;;;;;13.57;72.63;97528.31;4993120;28;20043;-74
2023/10/26 00:06:29;;;;;;;2.95;2.75;;;;;;;13.56;72.78;97532.78;4982466;28;20142;-77
2023/10/26 00:08:55;;;;;;;3.47;3.17;;;;;;;13.55;72.67;97529.31;4972396;28;20463;-76
2023/10/26 00:11:22;;;;;;;5.20;3.22;;;;;;;13.56;72.53;97532.78;4972227;28;20109;-74
2023/10/26 00:13:48;;;;;;;3.30;2.97;;;;;;;13.58;72.68;97529.97;4974373;28;20050;-74
2023/10/26 00:16:15;;;;;;;5.07;3.10;;;;;;;13.57;72.70;97533.63;4973601;28;20085;-75
2023/10/26 00:18:41;;;;;;;4.15;2.80;;;;;;;13.57;72.68;97531.78;4972860;28;20675;-75
2023/10/26 00:21:08;;;;;;;3.38;3.08;;;;;;;13.57;72.59;97539.72;4972520;28;20062;-73
2023/10/26 00:23:35;;;;;;;3.50;3.20;;;;;;;13.57;72.80;97541.53;4987304;28;20093;-76
2023/10/26 00:26:01;;;;;;;3.22;3.03;;;;;;;13.57;72.70;97539.72;4991252;28;20051;-71
2023/10/26 00:28:27;;;;;;;3.55;3.25;;;;;;;13.57;72.81;97544.19;4992804;28;20076;-75
2023/10/26 00:30:54;;;;;;;3.03;2.83;;;;;;;13.56;72.90;97532.78;4992903;28;20141;-73
2023/10/26 00:33:22;;;;;;;2.78;2.58;;;;;;;13.55;72.53;97539.91;4983842;28;20179;-77
2023/10/26 00:35:52;;;;;;;2.78;2.58;;;;;;;13.55;72.69;97536.41;4973726;28;20101;-75
2023/10/26 00:38:19;;;;;;;2.50;2.30;;;;;;;13.56;72.41;97540.69;4980797;28;20157;-74
2023/10/26 00:40:45;;;;;;;2.65;2.45;;;;;;;13.54;72.62;97543.50;4992634;28;20054;-75
2023/10/26 00:43:20;;;;;;;4.25;2.75;;;;;;;13.52;72.69;97548.13;4987481;28;20089;-75
2023/10/26 00:45:49;;;;;;;2.35;2.15;;;;;;;13.55;72.77;97552.28;4973338;28;20046;-77
2023/10/26 00:48:16;;;;;;;1.95;1.85;;;;;;;13.54;72.67;97546.16;4973094;28;20093;-75
2023/10/26 00:50:43;;;;;;;2.00;1.90;;;;;;;13.54;72.50;97542.69;4973168;28;20447;-75
2023/10/26 00:53:10;;;;;;;2.55;2.08;;;;;;;13.53;72.71;97538.41;4974635;28;20098;-76
2023/10/26 00:55:38;;;;;;;2.50;1.98;;;;;;;13.53;72.60;97544.50;4991683;28;20085;-75
2023/10/26 00:58:06;;;;;;;1.80;1.70;;;;;;;13.54;72.60;97545.34;4992064;28;20050;-75
2023/10/26 01:00:33;;;;;;;2.00;1.70;;;;;;;13.53;72.82;97548.97;4991334;28;20113;-71
2023/10/26 01:03:00;;;;;;;1.60;1.50;;;;;;;13.53;72.68;97556.91;4992279;28;20059;-73
2023/10/26 01:05:26;;;;;;;1.70;1.60;;;;;;;13.54;72.70;97555.91;4984025;28;20057;-77
2023/10/26 01:07:53;;;;;;;1.95;1.40;;;;;;;13.54;72.75;97559.38;4992290;28;20050;-75
2023/10/26 01:10:19;;;;;;;2.15;1.95;;;;;;;13.53;72.87;97560.34;4992225;28;20057;-72
2023/10/26 01:12:57;;;;;;;2.03;1.92;;;;;;;13.51;72.80;97561.50;4990868;28;20054;-72
2023/10/26 01:15:24;;;;;;;1.85;1.75;;;;;;;13.53;72.71;97557.72;4976532;28;20093;-75
2023/10/26 01:17:53;;;;;;;1.90;1.67;;;;;;;13.52;72.60;97568.44;4972580;28;20104;-78
2023/10/26 01:20:20;;;;;;;2.65;1.77;;;;;;;13.52;72.57;97569.28;4971092;28;20442;-73
2023/10/26 01:23:07;;;;;;;1.75;1.65;;;;;;;13.53;72.68;97578.84;4971794;28;20055;-77
2023/10/26 01:25:34;;;;;;;2.13;1.98;;;;;;;13.53;72.71;97580.69;4980274;28;20058;-76
2023/10/26 01:28:11;;;;;;;;;;;;;;;;;;;;;
2023/10/26 01:30:41;;;;;;;1.95;1.85;;;;;;;13.51;72.70;97590.59;4978776;28;20051;-79
2023/10/26 01:33:08;;;;;;;3.28;1.98;;;;;;;13.49;72.37;97592.56;4978756;28;20566;-74
2023/10/26 01:35:41;;;;;;;1.75;1.65;;;;;;;13.47;72.82;97597.97;4978568;28;20554;-75
2023/10/26 01:38:31;;;;;;;2.40;2.20;;;;;;;13.43;72.93;97597.44;4989053;28;20057;-78
2023/10/26 01:41:02;;;;;;;2.10;1.92;;;;;;;13.48;72.83;97599.66;4995366;28;20064;-74
2023/10/26 01:43:29;;;;;;;2.30;2.10;;;;;;;13.47;72.79;97600.63;4998220;28;20054;-71
2023/10/26 01:45:56;;;;;;;2.10;1.80;;;;;;;13.48;73.04;97599.66;4997047;28;20078;-74
2023/10/26 01:48:24;;;;;;;2.17;2.08;;;;;;;13.46;72.97;97601.59;4979614;28;20125;-74
2023/10/26 01:50:51;;;;;;;3.17;2.00;;;;;;;13.46;72.67;97601.59;4981157;28;20053;-75
2023/10/26 01:53:27;;;;;;;2.35;2.15;;;;;;;13.43;73.01;97602.75;4998356;28;20054;-81
2023/10/26 01:56:03;;;;;;;3.50;2.03;;;;;;;13.47;72.66;97605.06;4997956;28;20051;-75
2023/10/26 01:58:32;;;;;;;2.17;1.98;;;;;;;13.43;72.99;97601.94;4996098;28;20523;-72
2023/10/26 02:01:01;;;;;;;2.30;2.10;;;;;;;13.45;72.93;97607.06;4996526;28;20089;-79
2023/10/26 02:03:27;;;;;;;2.22;2.03;;;;;;;13.43;72.84;97600.09;4998108;28;20050;-82
2023/10/26 02:05:57;;;;;;;2.60;2.03;;;;;;;13.43;72.88;97605.38;4998255;28;20142;-82
2023/10/26 02:08:27;;;;;;;2.45;2.25;;;;;;;13.43;73.06;97615.94;4998234;28;20056;-80
2023/10/26 02:11:13;;;;;;;2.45;2.25;;;;;;;13.45;73.10;97617.63;4998010;28;20572;-81
2023/10/26 02:14:00;;;;;;;2.42;2.22;;;;;;;13.42;72.90;97616.94;4992484;28;20566;-80
2023/10/26 02:16:28;;;;;;;2.50;2.30;;;;;;;13.45;72.99;97617.63;4996446;28;20054;-75
2023/10/26 02:18:56;;;;;;;2.30;2.10;;;;;;;13.43;72.71;97612.50;4998418;28;20097;-71
2023/10/26 02:21:22;;;;;;;4.80;2.53;;;;;;;13.44;73.21;97616.78;4997795;28;20054;-81
2023/10/26 02:23:51;;;;;;;2.55;2.33;;;;;;;13.43;73.13;97618.59;4997052;28;20050;-78
2023/10/26 02:26:17;;;;;;;2.38;2.20;;;;;;;13.45;73.00;97623.72;4998554;28;20054;-79
2023/10/26 02:28:44;;;;;;;2.58;2.38;;;;;;;13.44;73.20;97624.72;4997860;28;20054;-75
2023/10/26 02:31:13;;;;;;;2.83;2.63;;;;;;;13.43;73.05;97623.06;4997515;28;20137;-75
2023/10/26 02:33:41;;;;;;;2.50;2.30;;;;;;;13.45;73.20;97625.56;4995901;28;20050;-74
2023/10/26 02:36:08;;;;;;;4.40;2.85;;;;;;;13.44;73.13;97630.00;4998076;28;20081;-80
2023/10/26 02:38:34;;;;;;;2.92;2.67;;;;;;;13.44;73.01;97624.72;4990959;28;20047;-75
2023/10/26 02:41:05;;;;;;;2.97;2.78;;;;;;;13.42;73.10;97630.16;4974513;28;20050;-78
2023/10/26 02:43:34;;;;;;;3.38;3.08;;;;;;;13.41;73.18;97638.25;4988105;28;20538;-74
2023/10/26 02:46:05;;;;;;;3.35;3.05;;;;;;;13.41;73.06;97632.97;4993458;28;20125;-76
2023/10/26 02:48:33;;;;;;;3.50;3.20;;;;;;;13.41;73.00;97640.88;4993717;28;20046;-75
2023/10/26 02:51:03;;;;;;;5.05;3.30;;;;;;;13.40;73.17;97640.06;4980145;28;20053;-75
2023/10/26 02:53:48;;;;;;;3.25;3.03;;;;;;;13.37;73.17;97645.66;4993705;28;20153;-75
2023/10/26 02:56:23;;;;;;;3.58;3.17;;;;;;;13.39;73.20;97656.09;4993052;28;20074;-73
2023/10/26 02:59:22;;;;;;;3.67;3.38;;;;;;;13.37;73.16;97653.59;4984976;28;20056;-75
2023/10/26 03:01:49;;;;;;;3.55;3.25;;;;;;;13.38;73.23;97662.38;4994276;28;20057;-73
2023/10/26 03:04:15;;;;;;;4.10;3.70;;;;;;;13.37;73.06;97660.69;4994922;28;20609;-77
2023/10/26 03:06:47;;;;;;;3.88;3.58;;;;;;;13.37;73.33;97660.69;4994785;28;20096;-79
2023/10/26 03:09:21;;;;;;;4.20;3.80;;;;;;;13.34;73.26;97666.31;4984795;28;20054;-75
2023/10/26 03:11:57;;;;;;;4.32;3.92;;;;;;;13.34;73.30;97667.13;4994016;28;20054;-72
2023/10/26 03:14:24;;;;;;;4.70;4.30;;;;;;;13.35;73.28;97663.47;4983651;28;20054;-70
2023/10/26 03:17:15;;;;;;;4.63;4.22;;;;;;;13.34;73.46;97675.03;4973785;28;20051;-75
2023/10/26 03:19:46;;;;;;;4.95;4.53;;;;;;;13.36;73.29;97680.19;4984033;28;20050;-74
2023/10/26 03:22:23;;;;;;;4.95;4.50;;;;;;;13.36;73.46;97685.47;4994070;28;20058;-76
2023/10/26 03:24:52;;;;;;;6.25;5.13;;;;;;;13.37;73.26;97677.38;4994505;28;20137;-70
2023/10/26 03:27:22;;;;;;;6.40;5.80;;;;;;;13.36;73.30;97673.09;4992438;28;20046;-72
2023/10/26 03:29:49;;;;;;;6.38;5.78;;;;;;;13.38;73.38;97675.56;4993083;28;20046;-76
2023/10/26 03:32:15;;;;;;;7.82;7.03;;;;;;;13.38;73.54;97673.75;4993669;28;20534;-81
2023/10/26 03:34:52;;;;;;;6.88;6.18;;;;;;;13.37;73.31;97672.09;4992401;28;20109;-74
2023/10/26 03:37:19;;;;;;;7.97;6.28;;;;;;;13.39;73.33;97682.50;4993708;28;20046;-72
2023/10/26 03:39:46;;;;;;;7.00;6.28;;;;;;;13.39;73.40;97680.69;4988986;28;20464;-77
2023/10/26 03:42:12;;;;;;;6.50;5.90;;;;;;;13.39;73.17;97685.97;4991780;28;20549;-76
2023/10/26 03:44:41;;;;;;;7.47;6.43;;;;;;;13.40;73.23;97678.88;4993687;28;20058;-72
2023/10/26 03:47:08;;;;;;;6.95;6.35;;;;;;;13.39;73.26;97683.31;4993490;28;20578;-74
2023/10/26 03:49:35;;;;;;;7.20;6.50;;;;;;;13.38;73.26;97683.50;4991947;28;20058;-73
2023/10/26 03:52:03;;;;;;;7.72;6.93;;;;;;;13.37;73.27;97685.31;4973619;28;20105;-74
2023/10/26 03:54:30;;;;;;;7.32;6.35;;;;;;;13.37;73.19;97687.09;4972318;28;20054;-74
2023/10/26 03:56:56;;;;;;;7.43;6.72;;;;;;;13.36;73.26;97699.50;4973865;28;20074;-73
2023/10/26 03:59:23;;;;;;;7.38;6.68;;;;;;;13.36;73.35;97702.16;4973860;28;20579;-77
2023/10/26 04:01:54;;;;;;;7.70;6.90;;;;;;;13.37;73.23;97697.69;4973475;28;20055;-74
2023/10/26 04:04:21;;;;;;;7.75;6.95;;;;;;;13.37;73.42;97702.97;4973415;28;20053;-78
2023/10/26 04:06:54;;;;;;;7.82;7.03;;;;;;;13.37;73.23;97703.81;4976274;28;20145;-74
2023/10/26 04:09:29;;;;;;;8.70;7.80;;;;;;;13.37;73.35;97702.97;4978160;28;20054;-74
2023/10/26 04:11:56;;;;;;;7.78;6.97;;;;;;;13.38;73.12;97696.72;4973453;28;20109;-77
2023/10/26 04:14:26;;;;;;;8.23;7.43;;;;;;;13.36;72.99;97709.25;4973533;28;20055;-69
2023/10/26 04:16:53;;;;;;;8.05;7.35;;;;;;;13.35;73.03;97713.69;4973496;28;20113;-76
2023/10/26 04:19:19;;;;;;;8.15;7.35;;;;;;;13.32;73.15;97708.72;4973190;28;20050;-74
2023/10/26 04:22:05;;;;;;;7.95;7.25;;;;;;;13.32;73.18;97719.31;4973294;28;20126;-71
2023/10/26 04:24:33;;;;;;;9.13;8.23;;;;;;;13.31;73.07;97715.00;4972071;28;20133;-72
2023/10/26 04:26:59;;;;;;;8.65;7.85;;;;;;;13.30;73.14;97710.69;4973712;28;20053;-75
2023/10/26 04:29:26;;;;;;;8.55;7.72;;;;;;;13.30;73.19;97715.97;4990690;28;20157;-75
2023/10/26 04:31:53;;;;;;;8.90;8.00;;;;;;;13.29;73.21;97716.97;4992258;28;20050;-76
2023/10/26 04:34:20;;;;;;;9.00;7.43;;;;;;;13.27;73.28;97714.47;4992769;28;20058;-76
2023/10/26 04:36:47;;;;;;;9.02;8.13;;;;;;;13.27;73.21;97708.38;4992477;28;20042;-76
2023/10/26 04:39:26;;;;;;;8.88;7.60;;;;;;;13.22;73.19;97714.13;4979063;28;20538;-76
2023/10/26 04:41:54;;;;;;;8.68;7.88;;;;;;;13.25;72.97;97720.91;4973378;28;20141;-74
2023/10/26 04:44:21;;;;;;;10.02;8.10;;;;;;;13.25;73.20;97723.53;4973088;28;20043;-74
2023/10/26 04:46:48;;;;;;;8.70;7.82;;;;;;;13.24;73.09;97725.34;4973091;28;20058;-76
2023/10/26 04:49:27;;;;;;;8.93;8.02;;;;;;;13.20;73.28;97729.28;4982972;28;20054;-76
2023/10/26 04:52:00;;;;;;;8.38;7.45;;;;;;;13.24;73.29;97727.19;4992705;28;20056;-75
2023/10/26 04:54:38;;;;;;;9.07;8.18;;;;;;;13.22;73.17;97727.31;4991225;28;20491;-80
2023/10/26 04:57:06;;;;;;;8.90;8.02;;;;;;;13.23;73.19;97725.53;4991382;28;20129;-79
2023/10/26 04:59:33;;;;;;;9.38;8.48;;;;;;;13.22;73.25;97724.69;4982629;28;20054;-81
2023/10/26 05:02:06;;;;;;;9.13;8.02;;;;;;;13.22;73.02;97723.84;4971459;28;20054;-80
2023/10/26 05:04:33;;;;;;;10.00;8.85;;;;;;;13.21;73.00;97728.31;4970975;28;20086;-77
2023/10/26 05:07:03;;;;;;;9.32;8.43;;;;;;;13.21;73.20;97730.13;4972303;28;20415;-77
2023/10/26 05:09:30;;;;;;;9.40;8.13;;;;;;;13.20;73.24;97729.28;4976570;28;20046;-76
2023/10/26 05:11:57;;;;;;;10.10;9.07;;;;;;;13.20;72.90;97723.19;4991666;28;20049;-77
2023/10/26 05:14:29;;;;;;;10.00;9.00;;;;;;;13.20;73.09;97723.19;4990865;28;20050;-79
2023/10/26 05:16:58;;;;;;;9.23;8.30;;;;;;;13.20;73.12;97717.91;4990934;28;20096;-73
2023/10/26 05:19:25;;;;;;;10.55;8.55;;;;;;;13.19;73.02;97718.88;4986951;28;20053;-75
2023/10/26 05:22:03;;;;;;;11.90;9.50;;;;;;;13.19;72.94;97718.88;4971094;28;20062;-78
2023/10/26 05:24:34;;;;;;;14.50;9.45;;;;;;;13.19;72.99;97713.59;4972805;28;20109;-77
2023/10/26 05:27:08;;;;;;;10.93;9.50;;;;;;;13.15;72.97;97719.19;4971278;28;20412;-75
2023/10/26 05:32:26;;;;;;;11.48;9.80;;;;;;;13.16;73.05;97728.75;4951420;29;20510;-82
2023/10/26 05:34:53;;;;;;;11.13;9.88;;;;;;;13.15;73.19;97729.75;4953149;28;20055;-78
2023/10/26 05:37:19;;;;;;;12.18;10.38;;;;;;;13.15;72.99;97732.41;4953006;29;20578;-76
2023/10/26 05:39:46;;;;;;;11.40;10.20;;;;;;;13.15;73.27;97731.56;4952423;29;20134;-77
2023/10/26 05:42:13;;;;;;;12.13;10.93;;;;;;;13.15;73.14;97732.41;4951419;29;20078;-80
2023/10/26 05:44:39;;;;;;;11.30;10.10;;;;;;;13.14;73.14;97721.97;4950957;29;20098;-79
2023/10/26 05:47:06;;;;;;;11.15;10.00;;;;;;;13.15;72.93;97734.19;4952266;28;20491;-86
2023/10/26 05:49:33;;;;;;;15.25;12.05;;;;;;;13.13;73.06;97737.00;4952919;28;20107;-91
2023/10/26 05:52:01;;;;;;;13.40;12.00;;;;;;;13.14;72.94;97732.56;4953200;28;20043;-83
2023/10/26 05:54:28;;;;;;;14.65;13.18;;;;;;;13.13;73.00;97741.47;4953085;28;20051;-85
2023/10/26 05:56:55;;;;;;;14.90;12.77;;;;;;;13.13;73.07;97741.47;4951925;29;20055;-88
2023/10/26 05:59:21;;;;;;;14.88;13.32;;;;;;;13.13;73.38;97742.28;4951131;29;20130;-90
2023/10/26 06:01:48;;;;;;;15.63;13.95;;;;;;;13.14;72.92;97746.59;4953670;28;20420;-90
2023/10/26 06:04:14;;;;;;;16.65;14.15;;;;;;;13.16;73.34;97749.91;4953192;28;20083;-89
2023/10/26 06:06:41;;;;;;;19.48;16.02;;;;;;;13.15;73.13;97750.88;4953187;28;20130;-84
2023/10/26 06:09:08;;;;;;;19.45;16.17;;;;;;;13.16;73.21;97755.19;4951262;29;20163;-92
2023/10/26 06:11:34;;;;;;;17.95;15.68;;;;;;;13.16;73.39;97752.53;4953019;28;20044;-91
2023/10/26 06:14:01;;;;;;;17.08;15.25;;;;;;;13.19;73.12;97753.22;4952657;28;20575;-93
2023/10/26 06:16:27;;;;;;;17.77;15.45;;;;;;;13.18;73.19;97756.84;4955502;28;20055;-87
2023/10/26 06:18:54;;;;;;;17.35;15.55;;;;;;;13.19;73.16;97755.88;4955632;28;20051;-90
2023/10/26 06:21:21;;;;;;;16.95;15.15;;;;;;;13.19;73.11;97743.47;4954114;29;20130;-85
2023/10/26 06:23:47;;;;;;;18.13;16.23;;;;;;;13.20;72.96;97757.53;4955240;28;20043;-91
2023/10/26 06:26:14;;;;;;;18.23;15.95;;;;;;;13.20;73.06;97760.16;4955139;28;20047;-87
2023/10/26 06:28:40;;;;;;;19.20;15.88;;;;;;;13.19;72.89;97761.16;4955118;28;20047;-87
2023/10/26 06:31:09;;;;;;;17.77;15.20;;;;;;;13.18;72.82;97767.41;4954603;28;20542;-91
2023/10/26 06:33:37;;;;;;;18.13;15.57;;;;;;;13.16;72.92;97757.81;4954493;29;20098;-82
2023/10/26 06:36:04;;;;;;;17.67;15.27;;;;;;;13.16;73.17;97770.22;4955943;28;20137;-79
2023/10/26 06:38:30;;;;;;;16.52;14.10;;;;;;;13.14;72.83;97767.72;4955670;28;20696;-81
2023/10/26 06:40:57;;;;;;;16.45;14.52;;;;;;;13.15;72.91;97776.47;4955260;28;20078;-79
2023/10/26 06:43:24;;;;;;;19.30;15.82;;;;;;;13.14;73.15;97778.28;4955593;28;20134;-80
2023/10/26 06:45:51;;;;;;;18.60;14.75;;;;;;;13.14;72.92;97786.22;4953892;29;20051;-83
2023/10/26 06:48:21;;;;;;;18.63;15.38;;;;;;;13.15;73.19;97785.22;4954377;29;20047;-81
2023/10/26 06:50:47;;;;;;;17.83;15.35;;;;;;;13.16;73.19;97784.25;4955610;28;20134;-86
2023/10/26 06:53:14;;;;;;;19.85;16.15;;;;;;;13.16;72.98;97789.53;4955486;28;20082;-82
2023/10/26 06:55:42;;;;;;;17.65;15.63;;;;;;;13.17;72.69;97790.38;4955236;28;20047;-77
2023/10/26 06:58:09;;;;;;;17.67;15.43;;;;;;;13.18;72.86;97780.59;4955506;28;20047;-79
2023/10/26 07:00:35;;;;;;;18.25;15.48;;;;;;;13.17;73.13;97777.16;4955242;29;20468;-84
2023/10/26 07:03:02;;;;;;;21.58;16.15;;;;;;;13.18;73.05;97780.59;4955057;29;20399;-82
2023/10/26 07:05:29;;;;;;;19.60;16.25;;;;;;;13.19;72.95;97784.94;4955392;29;20511;-77
2023/10/26 07:07:59;;;;;;;19.65;15.70;;;;;;;13.19;72.80;97782.28;4955426;29;20047;-81
2023/10/26 07:10:26;;;;;;;17.55;15.02;;;;;;;13.20;73.04;97797.16;4955127;29;20039;-80
2023/10/26 07:12:53;;;;;;;17.15;15.35;;;;;;;13.21;73.05;97788.25;4954848;29;20051;-82
2023/10/26 07:15:19;;;;;;;18.05;16.08;;;;;;;13.21;73.24;97785.59;4955154;29;20051;-82
2023/10/26 07:17:46;;;;;;;18.02;15.70;;;;;;;13.21;72.92;97796.16;4955096;29;20130;-89
2023/10/26 07:20:13;;;;;;;19.55;15.82;;;;;;;13.20;72.92;97797.16;4954974;29;20054;-82
2023/10/26 07:22:40;;;;;;;18.63;16.02;;;;;;;13.20;72.96;97786.59;4954641;29;20070;-81
2023/10/26 07:25:07;;;;;;;18.52;16.02;;;;;;;13.21;72.89;97788.25;4955016;29;20052;-82
2023/10/26 07:27:33;;;;;;;17.65;15.70;;;;;;;13.20;72.87;97786.59;4953411;28;20082;-83
2023/10/26 07:30:01;;;;;;;17.92;15.90;;;;;;;13.20;73.04;97795.31;4954797;28;20109;-82
2023/10/26 07:32:27;;;;;;;18.90;15.85;;;;;;;13.19;73.05;97788.38;4954476;28;20094;-82
2023/10/26 07:34:54;;;;;;;20.35;17.13;;;;;;;13.19;73.11;97791.03;4955001;29;20118;-83
2023/10/26 07:37:20;;;;;;;19.65;16.33;;;;;;;13.18;73.04;97789.38;4954707;29;20047;-76
2023/10/26 07:39:47;;;;;;;20.08;16.60;;;;;;;13.18;72.89;97788.53;4953289;29;20496;-81
2023/10/26 07:42:34;;;;;;;18.00;16.08;;;;;;;13.18;73.05;97792.03;4954264;28;20050;-82
2023/10/26 07:45:00;;;;;;;19.23;16.58;;;;;;;13.19;73.08;97790.22;4954371;28;20062;-81
2023/10/26 07:47:27;;;;;;;22.55;17.95;;;;;;;13.18;73.15;97797.31;4954802;29;20114;-82
2023/10/26 07:49:54;;;;;;;19.38;16.83;;;;;;;13.19;73.07;97790.22;4954283;29;20468;-77
2023/10/26 07:52:20;;;;;;;21.52;17.20;;;;;;;13.17;73.18;97785.09;4954322;29;20083;-79
2023/10/26 07:54:47;;;;;;;23.73;17.80;;;;;;;13.18;73.20;97786.72;4954564;28;20118;-81
2023/10/26 07:57:13;;;;;;;20.05;17.45;;;;;;;13.20;73.24;97783.94;4953368;29;20066;-86
2023/10/26 07:59:41;;;;;;;20.35;17.13;;;;;;;13.19;73.29;97782.28;4954228;28;20078;-85
2023/10/26 08:02:08;;;;;;;20.02;16.85;;;;;;;13.20;73.13;97790.03;4954262;28;20051;-79
2023/10/26 08:04:34;;;;;;;19.25;16.10;;;;;;;13.20;72.97;97786.59;4952595;29;20052;-82
2023/10/26 08:07:01;;;;;;;18.65;16.25;;;;;;;13.19;73.00;97795.50;4954222;28;20534;-81
2023/10/26 08:09:31;;;;;;;19.63;16.23;;;;;;;13.15;73.24;97794.97;4953957;28;20055;-79
2023/10/26 08:11:58;;;;;;;18.38;15.98;;;;;;;13.16;73.26;97810.66;4954018;29;20040;-79
2023/10/26 08:14:27;;;;;;;19.85;14.77;;;;;;;13.16;73.18;97808.00;4953663;29;20552;-83
2023/10/26 08:17:13;;;;;;;17.88;14.57;;;;;;;13.16;73.30;97800.09;4954181;28;20051;-82
2023/10/26 08:19:40;;;;;;;19.65;13.75;;;;;;;13.18;73.14;97804.38;4953835;28;20395;-84
2023/10/26 08:22:09;;;;;;;14.45;12.75;;;;;;;13.19;73.29;97804.22;4954114;29;20047;-79
2023/10/26 08:24:35;;;;;;;16.38;13.77;;;;;;;13.21;73.31;97804.94;4952309;29;20049;-81
2023/10/26 08:27:02;;;;;;;16.30;13.90;;;;;;;13.23;73.17;97804.78;4954043;28;20047;-81
2023/10/26 08:29:29;;;;;;;21.58;15.18;;;;;;;13.24;73.24;97803.78;4953797;29;20043;-77
2023/10/26 08:31:56;;;;;;;17.70;15.70;;;;;;;13.25;73.47;97800.16;4952548;29;20651;-83
2023/10/26 08:34:23;;;;;;;17.58;15.68;;;;;;;13.27;73.55;97801.66;4953525;28;20480;-81
2023/10/26 08:36:49;;;;;;;21.35;16.85;;;;;;;13.32;74.15;97800.38;4953291;28;20039;-79
2023/10/26 08:39:36;;;;;;;18.08;15.48;;;;;;;13.37;74.04;97798.94;4953292;28;20050;-81
2023/10/26 08:42:03;;;;;;;19.65;16.17;;;;;;;13.45;74.37;97799.97;4953758;28;20142;-85
2023/10/26 08:44:31;;;;;;;19.27;15.70;;;;;;;13.51;74.22;97800.22;4953626;28;20047;-82
2023/10/26 08:47:02;;;;;;;21.30;17.77;;;;;;;13.58;73.87;97805.72;4953458;28;20187;-76
2023/10/26 08:49:30;;;;;;;18.13;15.77;;;;;;;13.65;73.65;97811.22;4952180;29;20075;-82
2023/10/26 08:51:58;;;;;;;23.25;16.10;;;;;;;13.69;73.44;97817.84;4953664;28;20048;-84
2023/10/26 08:54:26;;;;;;;18.95;16.90;;;;;;;13.74;73.35;97818.22;4953283;28;20457;-82
2023/10/26 08:56:53;;;;;;;20.50;17.23;;;;;;;13.78;73.22;97818.72;4951930;29;20079;-80
2023/10/26 08:59:23;;;;;;;18.60;16.52;;;;;;;13.81;73.21;97815.75;4953341;28;20130;-81
2023/10/26 09:01:50;;;;;;;19.20;16.90;;;;;;;13.84;73.23;97820.75;4953503;28;20058;-78
2023/10/26 09:04:17;;;;;;;18.45;15.20;;;;;;;13.87;73.03;97816.97;4953394;28;20472;-83
2023/10/26 09:06:48;;;;;;;20.55;17.40;;;;;;;13.88;72.81;97814.16;4952665;29;20130;-80
2023/10/26 09:09:16;;;;;;;20.65;17.02;;;;;;;13.93;73.30;97814.50;4953100;29;20106;-80
2023/10/26 09:11:48;;;;;;;20.58;17.83;;;;;;;13.96;72.88;97807.25;4952019;29;20047;-82
2023/10/26 09:14:15;;;;;;;19.92;17.63;;;;;;;13.99;73.02;97818.34;4953425;28;20400;-83
2023/10/26 09:16:44;;;;;;;19.20;17.13;;;;;;;14.04;73.28;97825.78;4952817;29;20099;-79
2023/10/26 09:19:16;;;;;;;20.60;17.15;;;;;;;14.07;72.65;97830.78;4952664;29;20055;-80
2023/10/26 09:21:52;;;;;;;19.30;15.90;;;;;;;14.11;72.47;97832.13;4953046;28;20054;-86
2023/10/26 09:24:19;;;;;;;19.63;16.50;;;;;;;14.16;72.82;97829.81;4953338;28;20130;-81
2023/10/26 09:26:46;;;;;;;18.90;16.83;;;;;;;14.18;72.61;97825.22;4953181;28;20047;-82
2023/10/26 09:29:12;;;;;;;21.08;17.00;;;;;;;14.20;72.49;97831.16;4952756;28;20131;-80
2023/10/26 09:31:55;;;;;;;18.95;16.90;;;;;;;14.19;72.47;97824.22;4953179;28;20507;-82
2023/10/26 09:34:24;;;;;;;19.08;16.55;;;;;;;14.26;72.84;97834.16;4951981;29;20451;-81
2023/10/26 09:37:01;;;;;;;19.98;16.42;;;;;;;14.26;72.32;97835.00;4953005;28;20043;-78
2023/10/26 09:39:32;;;;;;;18.70;16.48;;;;;;;14.33;72.57;97829.91;4951781;29;20047;-82
2023/10/26 09:42:01;;;;;;;18.65;16.13;;;;;;;14.35;72.47;97827.91;4953035;28;20139;-86
2023/10/26 09:44:29;;;;;;;20.20;17.10;;;;;;;14.38;72.07;97835.53;4952645;28;20057;-79
2023/10/26 09:46:58;;;;;;;20.60;17.75;;;;;;;14.38;71.91;97840.84;4952694;29;20750;-82
2023/10/26 09:49:26;;;;;;;22.90;17.38;;;;;;;14.39;71.98;97836.38;4953424;28;20047;-86
2023/10/26 09:51:53;;;;;;;18.17;16.25;;;;;;;14.40;72.15;97844.16;4956403;29;20051;-83
2023/10/26 09:54:26;;;;;;;19.38;16.88;;;;;;;14.40;71.76;97844.16;4956659;29;20509;-81
2023/10/26 09:57:15;;;;;;;19.52;16.30;;;;;;;14.38;71.43;97856.72;4955470;29;20150;-87
2023/10/26 09:59:41;;;;;;;17.50;15.60;;;;;;;14.42;71.61;97847.47;4956512;28;20055;-82
2023/10/26 10:02:15;;;;;;;19.40;15.88;;;;;;;14.39;71.18;97857.56;4955996;28;20044;-78
2023/10/26 10:04:42;;;;;;;17.65;15.75;;;;;;;14.41;71.42;97860.84;4956307;28;20070;-81
2023/10/26 10:07:15;;;;;;;19.58;17.10;;;;;;;14.39;71.37;97870.78;4956243;28;20047;-76
2023/10/26 10:10:03;;;;;;;20.60;17.67;;;;;;;14.33;71.06;97866.97;4956277;28;20846;-80
2023/10/26 10:12:30;;;;;;;18.60;16.67;;;;;;;14.35;71.43;97869.44;4955965;29;20083;-81
2023/10/26 10:14:58;;;;;;;19.52;17.33;;;;;;;14.33;71.44;97861.66;4956105;28;20082;-81
2023/10/26 10:17:44;;;;;;;19.08;16.95;;;;;;;14.32;71.66;97870.59;4956355;28;20051;-81
2023/10/26 10:20:14;;;;;;;21.13;17.15;;;;;;;14.30;71.69;97877.84;4956347;28;20137;-79
2023/10/26 10:22:40;;;;;;;20.00;17.52;;;;;;;14.31;71.80;97868.91;4956331;28;20039;-82
2023/10/26 10:25:10;;;;;;;21.20;18.20;;;;;;;14.31;71.79;97869.75;4956091;28;20043;-87
2023/10/26 10:28:00;;;;;;;21.77;18.27;;;;;;;14.30;71.43;97883.16;4955710;28;20476;-82
2023/10/26 10:30:29;;;;;;;19.33;16.92;;;;;;;14.30;71.70;97877.84;4955755;28;20051;-79
2023/10/26 10:32:56;;;;;;;23.30;18.55;;;;;;;14.30;71.52;97873.41;4955710;28;20047;-87
2023/10/26 10:35:39;;;;;;;20.50;17.90;;;;;;;14.24;71.43;97857.31;4955854;28;20047;-82
2023/10/26 10:38:24;;;;;;;21.13;17.17;;;;;;;14.25;71.73;97858.97;4956037;29;20134;-81
2023/10/26 10:40:54;;;;;;;19.95;17.25;;;;;;;14.29;71.81;97855.88;4956652;29;20055;-82
2023/10/26 10:43:43;;;;;;;20.65;18.25;;;;;;;14.25;71.63;97858.97;4956757;28;20126;-81
2023/10/26 10:46:10;;;;;;;21.27;18.90;;;;;;;14.32;71.87;97860.00;4955821;29;20772;-85
2023/10/26 10:48:53;;;;;;;21.90;19.33;;;;;;;14.29;71.81;97855.03;4955988;28;20040;-80
2023/10/26 10:51:19;;;;;;;23.92;19.15;;;;;;;14.34;72.18;97850.09;4955855;28;20047;-81
2023/10/26 10:53:50;;;;;;;23.25;18.65;;;;;;;14.34;71.89;97850.09;4955687;28;20049;-80
2023/10/26 10:56:16;;;;;;;21.60;19.33;;;;;;;14.39;71.91;97849.63;4955478;29;20444;-82
2023/10/26 10:58:43;;;;;;;21.73;19.23;;;;;;;14.39;71.76;97836.38;4955064;29;20146;-85
2023/10/26 11:01:11;;;;;;;23.27;19.95;;;;;;;14.38;71.64;97847.94;4954835;28;20055;-81
2023/10/26 11:03:37;;;;;;;23.42;19.33;;;;;;;14.39;71.51;97846.97;4955248;28;20855;-81
2023/10/26 11:06:04;;;;;;;21.45;19.17;;;;;;;14.38;71.43;97843.47;4955629;28;20094;-81
2023/10/26 11:08:38;;;;;;;23.70;20.83;;;;;;;14.35;71.25;97849.09;4955392;28;20114;-81
2023/10/26 11:11:04;;;;;;;23.10;19.38;;;;;;;14.36;71.50;97842.00;4954910;28;20496;-81
2023/10/26 11:13:31;;;;;;;23.70;19.27;;;;;;;14.35;71.30;97843.78;4955293;28;20131;-81
2023/10/26 11:15:57;;;;;;;22.15;18.73;;;;;;;14.34;71.41;97847.44;4955166;28;20085;-81
2023/10/26 11:18:24;;;;;;;26.92;20.15;;;;;;;14.32;71.30;97839.66;4954089;29;20047;-81
2023/10/26 11:20:51;;;;;;;21.30;19.08;;;;;;;14.32;71.10;97846.78;4954429;28;20062;-77
2023/10/26 11:23:23;;;;;;;22.52;19.83;;;;;;;14.27;71.00;97841.94;4953851;28;20043;-81
2023/10/26 11:25:49;;;;;;;21.60;18.13;;;;;;;14.28;71.47;97842.78;4954619;28;20053;-81
2023/10/26 11:28:32;;;;;;;26.40;21.30;;;;;;;14.23;71.27;97847.69;4954287;28;20046;-81
2023/10/26 11:30:59;;;;;;;21.65;18.98;;;;;;;14.28;71.48;97842.78;4953989;28;20059;-80
2023/10/26 11:33:33;;;;;;;25.58;20.67;;;;;;;14.25;71.20;97837.81;4953406;29;20039;-84
2023/10/26 11:36:01;;;;;;;24.92;20.25;;;;;;;14.29;71.43;97840.00;4953623;29;20077;-81
2023/10/26 11:38:27;;;;;;;27.30;21.60;;;;;;;14.28;71.43;97837.50;4953898;28;20094;-84
2023/10/26 11:40:55;;;;;;;23.92;20.10;;;;;;;14.26;71.32;97832.34;4954197;28;20111;-81